»·PEaware :: N637GY KSAN-KFUL

N637GY :: KSAN-KFUL

FLIGHT INFORMATION

Flight Status: Arrived
Operator: Privately registered:
United States
More flights under this callsign
Pilot: James B. (24167)
Aircraft: CIRRUS SR-20
(SR20)
More flights by this aircraft type
Origin: KSAN San Diego Intl-Lindbergh
United States
Destination: KFUL Fullerton Mun
United States
More flights between these airports :: More routes between these airports
Route: +DANAH V23 SLI
File this flight plan on PilotEdge
Remarks: TEC rte SANP3
Altitude:
(Current/Filed)
6,000ft
Speed:
(Current/Filed)
140kts
Departed: 05-Aug-19 08:13 AM
Arrived: 05-Aug-19 08:56 AM
Distance/Time
Traveled:
79nm/0:42
Distance/Time
To Go:
Arrived

Flight Plot

Page will automatically refresh every two minutes.


Map Options




Map Legend


Flown Route
Filed Route
Departure Airport
Arrival Airport
Navaid (VOR, NDB)
Fix

Horizontal Profiles

Position Reports

Time Latitude Longitude Heading Altitude Ground
Speed
05-Aug-19 07:13 32.733447 -117.178769 194 19ft 0kts
05-Aug-19 07:14 32.733447 -117.178769 194 19ft 0kts
05-Aug-19 07:15 32.733447 -117.178769 194 19ft 0kts
05-Aug-19 07:16 32.733447 -117.178769 194 19ft 0kts
05-Aug-19 07:17 32.733447 -117.178769 194 19ft 0kts
05-Aug-19 07:18 32.733447 -117.178769 194 19ft 0kts
05-Aug-19 07:19 32.733447 -117.178769 194 19ft 0kts
05-Aug-19 07:20 32.733447 -117.178769 194 19ft 0kts
05-Aug-19 07:21 32.733447 -117.178769 194 19ft 0kts
05-Aug-19 07:22 32.733447 -117.178769 194 19ft 0kts
05-Aug-19 07:23 32.733447 -117.178769 194 19ft 0kts
05-Aug-19 07:24 32.733447 -117.178769 194 19ft 0kts
05-Aug-19 07:25 32.733447 -117.178769 194 19ft 0kts
05-Aug-19 07:26 32.733447 -117.178769 194 19ft 0kts
05-Aug-19 07:27 32.733447 -117.178769 194 19ft 0kts
05-Aug-19 07:28 32.733447 -117.178769 194 19ft 0kts
05-Aug-19 07:29 32.733447 -117.178769 194 19ft 0kts
05-Aug-19 07:30 32.733447 -117.178769 194 19ft 0kts
05-Aug-19 07:31 32.733447 -117.178769 194 19ft 0kts
05-Aug-19 07:32 32.733447 -117.178769 194 19ft 0kts
05-Aug-19 07:33 32.733447 -117.178769 194 19ft 0kts
05-Aug-19 07:34 32.733447 -117.178769 194 19ft 0kts
05-Aug-19 07:35 32.733447 -117.178769 194 19ft 0kts
05-Aug-19 07:36 32.733447 -117.178769 194 19ft 0kts
05-Aug-19 07:37 32.733447 -117.178769 194 19ft 0kts
05-Aug-19 07:38 32.733447 -117.178769 194 19ft 0kts
05-Aug-19 07:39 32.733447 -117.178769 194 19ft 0kts
05-Aug-19 07:40 32.733447 -117.178769 194 19ft 0kts
05-Aug-19 07:41 32.733447 -117.178769 194 19ft 0kts
05-Aug-19 07:42 32.733447 -117.178769 194 19ft 0kts
05-Aug-19 07:43 32.733447 -117.178769 194 19ft 0kts
05-Aug-19 07:44 32.733447 -117.178769 194 19ft 0kts
05-Aug-19 07:45 32.733447 -117.178769 194 19ft 0kts
05-Aug-19 07:46 32.733447 -117.178769 194 19ft 0kts
05-Aug-19 07:47 32.733447 -117.178769 194 19ft 0kts
05-Aug-19 07:48 32.733447 -117.178769 194 19ft 0kts
05-Aug-19 07:49 32.733447 -117.178769 194 19ft 0kts
05-Aug-19 07:50 32.733447 -117.178769 194 19ft 0kts
05-Aug-19 07:51 32.733447 -117.178769 194 19ft 0kts
05-Aug-19 07:52 32.733447 -117.178769 194 19ft 0kts
05-Aug-19 07:53 32.733447 -117.178769 194 19ft 0kts
05-Aug-19 07:54 32.733447 -117.178769 194 19ft 0kts
05-Aug-19 07:55 32.733447 -117.178769 194 19ft 0kts
05-Aug-19 07:56 32.733447 -117.178769 194 19ft 0kts
05-Aug-19 07:57 32.733447 -117.178769 194 19ft 0kts
05-Aug-19 07:58 32.733447 -117.178769 194 19ft 0kts
05-Aug-19 07:59 32.733447 -117.178769 194 19ft 0kts
05-Aug-19 08:00 32.733447 -117.178769 194 19ft 0kts
05-Aug-19 08:01 32.733447 -117.178769 194 19ft 0kts
05-Aug-19 08:02 32.733326 -117.178937 276 18ft 0kts
05-Aug-19 08:03 32.733326 -117.178937 276 18ft 0kts
05-Aug-19 08:04 32.733326 -117.178937 276 18ft 0kts
05-Aug-19 08:05 32.733326 -117.178937 276 18ft 0kts
05-Aug-19 08:06 32.733326 -117.178937 276 18ft 0kts
05-Aug-19 08:07 32.733326 -117.178937 276 18ft 0kts
05-Aug-19 08:08 32.733326 -117.178937 276 18ft 0kts
05-Aug-19 08:09 32.733025 -117.179260 206 18ft 5kts
05-Aug-19 08:10 32.731724 -117.177357 108 20ft 11kts
05-Aug-19 08:11 32.730220 -117.175100 175 22ft 12kts
05-Aug-19 08:12 32.734588 -117.194126 289 530ft 89kts
05-Aug-19 08:13 32.752467 -117.214822 315 1625ft 93kts
05-Aug-19 08:14 32.772211 -117.235487 319 2664ft 94kts
05-Aug-19 08:15 32.792960 -117.253300 344 3591ft 104kts
05-Aug-19 08:16 32.819365 -117.261552 331 4488ft 104kts
05-Aug-19 08:17 32.845650 -117.276693 329 5354ft 106kts
05-Aug-19 08:18 32.873689 -117.290550 333 6000ft 123kts
05-Aug-19 08:19 32.904043 -117.314612 325 5994ft 136kts
05-Aug-19 08:20 32.937202 -117.335883 326 6059ft 135kts
05-Aug-19 08:21 32.971058 -117.358974 328 6000ft 140kts
05-Aug-19 08:22 33.005255 -117.381366 328 6000ft 138kts
05-Aug-19 08:23 33.038976 -117.403328 328 6000ft 137kts
05-Aug-19 08:24 33.072532 -117.425171 328 6000ft 137kts
05-Aug-19 08:25 33.106145 -117.447047 328 5999ft 137kts
05-Aug-19 08:26 33.139234 -117.468835 325 5999ft 136kts
05-Aug-19 08:27 33.172101 -117.491654 326 6007ft 135kts
05-Aug-19 08:28 33.204799 -117.513682 327 6008ft 135kts
05-Aug-19 08:29 33.237854 -117.535749 327 6008ft 135kts
05-Aug-19 08:30 33.270853 -117.557760 328 6008ft 135kts
05-Aug-19 08:31 33.303935 -117.579786 328 6008ft 135kts
05-Aug-19 08:32 33.336959 -117.601729 330 6007ft 136kts
05-Aug-19 08:33 33.371251 -117.620995 332 6008ft 136kts
05-Aug-19 08:34 33.405591 -117.640196 332 6008ft 136kts
05-Aug-19 08:35 33.439842 -117.659343 331 6009ft 136kts
05-Aug-19 08:36 33.474355 -117.678522 331 6000ft 136kts
05-Aug-19 08:37 33.508788 -117.697518 331 6000ft 135kts
05-Aug-19 08:38 33.543109 -117.716443 331 6000ft 135kts
05-Aug-19 08:39 33.577463 -117.735382 331 6000ft 135kts
05-Aug-19 08:40 33.611261 -117.756071 332 6000ft 137kts
05-Aug-19 08:41 33.645124 -117.778094 331 5999ft 138kts
05-Aug-19 08:43 33.679039 -117.800075 332 6000ft 138kts
05-Aug-19 08:44 33.713629 -117.818458 1 5949ft 133kts
05-Aug-19 08:45 33.751283 -117.818039 1 5290ft 134kts
05-Aug-19 08:46 33.788554 -117.817574 5 4540ft 133kts
05-Aug-19 08:47 33.824008 -117.810231 11 3808ft 129kts
05-Aug-19 08:48 33.859149 -117.802447 11 3133ft 123kts
05-Aug-19 08:49 33.893557 -117.796080 327 3003ft 126kts
05-Aug-19 08:50 33.900015 -117.833890 256 2965ft 107kts
05-Aug-19 08:51 33.893657 -117.867017 255 2371ft 100kts
05-Aug-19 08:52 33.887670 -117.897377 256 1735ft 89kts
05-Aug-19 08:53 33.882209 -117.926420 254 1012ft 89kts
05-Aug-19 08:54 33.877283 -117.952506 253 569ft 79kts
05-Aug-19 08:55 33.872439 -117.977704 254 96ft 65kts
05-Aug-19 08:56 33.870950 -117.983081 69 88ft 1kts
05-Aug-19 08:57 33.871184 -117.981363 161 91ft 4kts
05-Aug-19 08:58 33.870683 -117.981541 260 90ft 0kts
05-Aug-19 08:59 33.870683 -117.981541 260 90ft 0kts
05-Aug-19 08:59 33.870683 -117.981541 260 90ft 0kts
05-Aug-19 09:01 33.870683 -117.981541 260 90ft 0kts
05-Aug-19 09:02 33.870683 -117.981541 260 90ft 0kts
05-Aug-19 09:02 33.870683 -117.981541 260 90ft 0kts
05-Aug-19 09:04 33.870683 -117.981541 260 90ft 0kts
05-Aug-19 09:04 33.870683 -117.981541 260 90ft 0kts
05-Aug-19 09:05 33.870683 -117.981541 260 90ft 0kts
05-Aug-19 09:07 33.870683 -117.981541 260 90ft 0kts
05-Aug-19 09:07 33.870683 -117.981541 260 90ft 0kts
05-Aug-19 09:08 33.870683 -117.981541 260 90ft 0kts
05-Aug-19 09:09 33.870683 -117.981541 260 90ft 0kts

Navigation Log

Ident Type
Flight plan parsing failed, navigation log unavailable